Time;durP1;ratioP1;P1;durP2;ratioP2;P2;SDS_P1;SDS_P2;PMS_P1;PMS_P2;Temp;Humidity;BMP_temperature;BMP_pressure;BME280_temperature;BME280_humidity;BME280_pressure;Samples;Min_cycle;Max_cycle;Signal;HPM_P1;HPM_P2
2023/08/07 00:00:09;;;;;;;3.37;2.10;;;14.90;99.90;;;;;;5130860;28;21212;-45
2023/08/07 00:02:39;;;;;;;2.13;2.03;;;14.80;99.90;;;;;;5144961;28;20193;-45
2023/08/07 00:05:10;;;;;;;2.13;1.93;;;14.80;99.90;;;;;;5152897;28;20451;-45
2023/08/07 00:07:40;;;;;;;2.60;2.50;;;14.80;99.90;;;;;;5141292;28;20216;-45
2023/08/07 00:10:11;;;;;;;2.13;2.03;;;14.80;99.90;;;;;;5145240;28;20662;-45
2023/08/07 00:12:43;;;;;;;2.90;2.33;;;14.80;99.90;;;;;;5147331;28;20188;-44
2023/08/07 00:15:13;;;;;;;2.97;2.70;;;14.80;99.90;;;;;;5153170;28;20236;-46
2023/08/07 00:17:44;;;;;;;3.37;2.70;;;14.80;99.90;;;;;;5138943;28;20444;-45
2023/08/07 00:20:14;;;;;;;3.13;2.80;;;14.90;99.90;;;;;;5136802;28;20217;-45
2023/08/07 00:22:45;;;;;;;2.60;2.40;;;14.90;99.90;;;;;;5159567;28;20189;-46
2023/08/07 00:25:16;;;;;;;3.03;2.20;;;14.90;99.90;;;;;;5145429;28;20186;-45
2023/08/07 00:27:46;;;;;;;6.77;3.20;;;15.00;99.90;;;;;;5149002;28;20201;-45
2023/08/07 00:30:17;;;;;;;2.70;2.50;;;15.00;99.90;;;;;;5150180;28;20209;-46
2023/08/07 00:32:47;;;;;;;3.83;2.67;;;15.10;99.90;;;;;;5128995;28;20269;-45
2023/08/07 00:35:18;;;;;;;3.67;2.80;;;14.90;99.90;;;;;;5130344;28;20189;-45
2023/08/07 00:37:49;;;;;;;3.20;2.90;;;14.90;99.90;;;;;;5156815;28;20763;-46
2023/08/07 00:40:19;;;;;;;3.83;3.40;;;14.90;99.90;;;;;;5145419;28;20206;-45
2023/08/07 00:42:50;;;;;;;5.87;3.37;;;15.00;99.90;;;;;;5140194;28;20228;-45
2023/08/07 00:45:21;;;;;;;2.53;2.40;;;14.90;99.90;;;;;;5146403;28;20241;-46
2023/08/07 00:47:51;;;;;;;4.03;2.60;;;14.90;99.90;;;;;;5142864;28;20201;-46
2023/08/07 00:50:22;;;;;;;3.10;2.80;;;14.90;99.90;;;;;;5139885;28;20471;-46
2023/08/07 00:52:53;;;;;;;10.40;3.40;;;15.00;99.90;;;;;;5154969;28;20224;-45
2023/08/07 00:55:23;;;;;;;3.90;3.20;;;15.00;99.90;;;;;;5150038;28;20185;-45
2023/08/07 00:57:54;;;;;;;3.43;3.23;;;15.10;99.90;;;;;;5139883;28;20277;-45
2023/08/07 01:00:28;;;;;;;3.80;3.57;;;15.00;99.90;;;;;;5147850;28;20206;-45
2023/08/07 01:03:00;;;;;;;2.90;2.70;;;15.00;99.90;;;;;;5141594;28;20589;-45
2023/08/07 01:05:31;;;;;;;3.77;2.90;;;15.00;99.90;;;;;;5161136;28;20783;-46
2023/08/07 01:08:02;;;;;;;4.00;2.70;;;15.00;99.90;;;;;;5137424;28;20526;-46
2023/08/07 01:10:42;;;;;;;7.93;2.30;;;15.00;99.90;;;;;;5153820;28;20202;-46
2023/08/07 01:13:38;;;;;;;2.70;2.60;;;15.10;99.90;;;;;;5156404;28;20436;-46
2023/08/07 01:16:18;;;;;;;3.70;2.77;;;15.10;99.90;;;;;;5126221;28;20950;-46
2023/08/07 01:18:49;;;;;;;3.27;3.07;;;15.20;99.90;;;;;;5141203;28;20440;-45
2023/08/07 01:21:21;;;;;;;2.60;2.40;;;15.20;99.90;;;;;;5157576;28;20972;-45
2023/08/07 01:23:51;;;;;;;5.77;2.80;;;15.10;99.90;;;;;;5141853;28;20424;-45
2023/08/07 01:26:22;;;;;;;2.87;2.77;;;15.10;99.90;;;;;;5151908;28;20439;-45
2023/08/07 01:29:14;;;;;;;4.50;2.60;;;15.10;99.90;;;;;;5142275;28;20202;-45
2023/08/07 01:31:49;;;;;;;3.27;2.70;;;15.10;99.90;;;;;;5154098;28;20193;-46
2023/08/07 01:34:23;;;;;;;2.27;2.17;;;15.10;99.90;;;;;;5133042;28;21008;-45
2023/08/07 01:36:55;;;;;;;2.73;2.63;;;15.10;99.90;;;;;;5128460;28;20434;-45
2023/08/07 01:39:27;;;;;;;3.87;2.53;;;15.10;99.90;;;;;;5129133;28;20509;-46
2023/08/07 01:42:00;;;;;;;5.63;3.13;;;15.10;99.90;;;;;;5145198;28;20471;-45
2023/08/07 01:44:31;;;;;;;2.40;2.30;;;15.10;99.90;;;;;;5131628;28;20734;-47
2023/08/07 01:47:01;;;;;;;5.70;2.40;;;15.10;99.90;;;;;;5145868;28;20526;-45
2023/08/07 01:49:32;;;;;;;3.37;2.50;;;15.00;99.90;;;;;;5132693;28;20940;-45
2023/08/07 01:52:03;;;;;;;2.50;2.00;;;15.00;99.90;;;;;;5149387;28;20200;-46
2023/08/07 01:54:33;;;;;;;3.37;3.07;;;14.90;99.90;;;;;;5140169;28;20665;-45
2023/08/07 01:57:04;;;;;;;8.33;2.27;;;14.90;99.90;;;;;;5137526;28;20189;-45
2023/08/07 01:59:35;;;;;;;3.10;2.90;;;14.90;99.90;;;;;;5145304;28;20597;-45
2023/08/07 02:02:06;;;;;;;2.80;2.60;;;14.90;99.90;;;;;;5148511;28;20681;-44
2023/08/07 02:04:36;;;;;;;3.70;3.40;;;14.90;99.90;;;;;;5123452;28;20667;-45
2023/08/07 02:07:07;;;;;;;3.00;2.80;;;14.90;99.90;;;;;;5149648;28;20205;-46
2023/08/07 02:09:37;;;;;;;6.93;3.20;;;14.80;99.90;;;;;;5126071;28;20273;-45
2023/08/07 02:12:08;;;;;;;4.20;2.90;;;14.80;99.90;;;;;;5139400;28;20344;-45
2023/08/07 02:14:39;;;;;;;4.37;3.50;;;14.80;99.90;;;;;;5130437;28;20231;-45
2023/08/07 02:17:09;;;;;;;2.73;2.53;;;14.70;99.90;;;;;;5134856;28;20571;-45
2023/08/07 02:19:40;;;;;;;4.83;2.83;;;14.80;99.90;;;;;;5130699;28;20193;-45
2023/08/07 02:22:11;;;;;;;5.77;3.67;;;14.80;99.90;;;;;;5131953;28;20212;-46
2023/08/07 02:24:41;;;;;;;4.70;3.27;;;14.70;99.90;;;;;;5146816;28;20194;-46
2023/08/07 02:27:12;;;;;;;3.00;2.80;;;14.70;99.90;;;;;;5145360;28;20216;-46
2023/08/07 02:29:43;;;;;;;4.30;3.47;;;14.80;99.90;;;;;;5140017;28;20173;-45
2023/08/07 02:32:14;;;;;;;4.67;3.47;;;14.80;99.90;;;;;;5151963;28;20185;-45
2023/08/07 02:34:45;;;;;;;2.53;2.43;;;14.80;99.90;;;;;;5150184;28;20489;-47
2023/08/07 02:37:16;;;;;;;9.53;3.50;;;14.90;99.90;;;;;;5141808;28;20547;-46
2023/08/07 02:39:47;;;;;;;4.07;3.70;;;15.00;99.90;;;;;;5135009;28;20261;-45
2023/08/07 02:42:17;;;;;;;3.97;3.67;;;15.00;99.90;;;;;;5139201;28;20534;-45
2023/08/07 02:44:48;;;;;;;5.20;3.43;;;15.10;99.90;;;;;;5154969;28;20186;-45
2023/08/07 02:47:19;;;;;;;6.10;3.30;;;15.10;99.90;;;;;;5149291;28;20236;-46
2023/08/07 02:49:49;;;;;;;4.07;3.67;;;15.20;99.90;;;;;;5153180;28;20191;-46
2023/08/07 02:52:20;;;;;;;3.67;3.50;;;15.20;99.90;;;;;;5139273;28;20656;-46
2023/08/07 02:54:51;;;;;;;6.90;3.93;;;15.20;99.90;;;;;;5125054;28;20183;-46
2023/08/07 02:57:21;;;;;;;10.40;4.30;;;15.20;99.90;;;;;;5137124;28;20208;-46
2023/08/07 02:59:52;;;;;;;2.93;2.80;;;15.30;99.90;;;;;;5154037;28;20252;-45
2023/08/07 03:02:22;;;;;;;11.20;3.70;;;15.30;99.90;;;;;;5142182;28;20193;-47
2023/08/07 03:04:53;;;;;;;7.73;4.87;;;15.30;99.90;;;;;;5136690;28;20321;-45
2023/08/07 03:07:23;;;;;;;13.13;3.83;;;15.20;99.90;;;;;;5152021;28;20288;-45
2023/08/07 03:09:54;;;;;;;4.27;3.90;;;15.20;99.90;;;;;;5130809;28;20526;-45
2023/08/07 03:12:25;;;;;;;4.13;3.67;;;15.20;99.90;;;;;;5166033;28;20177;-46
2023/08/07 03:14:55;;;;;;;7.40;3.73;;;15.30;99.90;;;;;;5135715;28;20187;-45
2023/08/07 03:17:26;;;;;;;4.20;3.80;;;15.30;99.90;;;;;;5130672;28;20201;-45
2023/08/07 03:19:57;;;;;;;8.20;4.80;;;15.20;99.90;;;;;;5158705;28;20200;-45
2023/08/07 03:22:27;;;;;;;10.93;4.53;;;15.20;99.90;;;;;;5182079;23;20653;-47
2023/08/07 03:24:58;;;;;;;5.80;3.20;;;15.10;99.90;;;;;;5167469;28;20181;-47
2023/08/07 03:27:28;;;;;;;5.30;4.20;;;15.10;99.90;;;;;;5170879;28;20221;-47
2023/08/07 03:29:59;;;;;;;9.10;4.53;;;15.20;99.90;;;;;;5178499;28;20208;-48
2023/08/07 03:32:29;;;;;;;8.60;4.87;;;15.20;99.90;;;;;;5172568;28;20324;-46
2023/08/07 03:35:00;;;;;;;4.77;3.63;;;15.20;99.90;;;;;;5166376;28;20177;-46
2023/08/07 03:37:31;;;;;;;4.60;4.30;;;15.20;99.90;;;;;;5171156;28;20216;-47
2023/08/07 03:40:01;;;;;;;11.83;4.17;;;15.20;99.90;;;;;;5167795;28;20292;-46
2023/08/07 03:42:32;;;;;;;6.90;4.63;;;15.20;99.90;;;;;;5169281;28;20196;-47
2023/08/07 03:45:03;;;;;;;5.23;4.70;;;15.20;99.90;;;;;;5173014;28;20264;-48
2023/08/07 03:47:33;;;;;;;6.07;4.33;;;15.30;99.90;;;;;;5164358;28;20205;-46
2023/08/07 03:50:05;;;;;;;6.97;4.20;;;15.30;99.90;;;;;;5165718;28;20177;-48
2023/08/07 03:52:35;;;;;;;5.33;4.77;;;15.30;99.90;;;;;;5165026;28;20579;-46
2023/08/07 03:55:06;;;;;;;8.60;4.80;;;15.30;99.90;;;;;;5168113;28;20680;-45
2023/08/07 03:57:37;;;;;;;5.60;5.00;;;15.30;99.90;;;;;;5168226;28;20185;-47
2023/08/07 04:00:08;;;;;;;5.33;4.77;;;15.30;99.90;;;;;;5165679;28;20231;-48
2023/08/07 04:02:39;;;;;;;4.00;3.70;;;15.30;99.90;;;;;;5167509;28;20216;-48
2023/08/07 04:05:10;;;;;;;5.80;4.67;;;15.40;99.90;;;;;;5167401;28;20574;-46
2023/08/07 04:07:42;;;;;;;9.40;4.63;;;15.40;99.90;;;;;;5167144;28;20916;-47
2023/08/07 04:10:13;;;;;;;4.03;3.70;;;15.40;99.90;;;;;;5158329;28;20182;-47
2023/08/07 04:12:44;;;;;;;3.87;3.60;;;15.40;99.90;;;;;;5167361;28;20623;-47
2023/08/07 04:15:14;;;;;;;8.70;4.23;;;15.40;99.90;;;;;;5166120;28;20173;-47
2023/08/07 04:17:45;;;;;;;5.87;3.73;;;15.40;99.90;;;;;;5164572;28;20186;-46
2023/08/07 04:20:16;;;;;;;8.17;4.87;;;15.60;99.90;;;;;;5166517;28;20188;-46
2023/08/07 04:22:46;;;;;;;4.03;3.67;;;15.80;99.90;;;;;;5163330;28;20598;-46
2023/08/07 04:25:17;;;;;;;4.10;3.80;;;16.00;99.90;;;;;;5149117;28;20200;-46
2023/08/07 04:27:48;;;;;;;4.57;4.20;;;16.10;99.90;;;;;;5167431;28;20330;-46
2023/08/07 04:30:18;;;;;;;8.03;4.00;;;16.20;99.90;;;;;;5164512;28;20193;-47
2023/08/07 04:32:49;;;;;;;3.87;3.53;;;16.30;99.90;;;;;;5162736;28;20600;-47
2023/08/07 04:35:19;;;;;;;5.40;5.00;;;16.30;99.90;;;;;;5165686;28;20189;-48
2023/08/07 04:37:50;;;;;;;4.70;4.07;;;16.30;99.90;;;;;;5165455;28;20505;-46
2023/08/07 04:40:20;;;;;;;4.20;3.83;;;16.40;99.90;;;;;;5161034;28;20197;-48
2023/08/07 04:42:51;;;;;;;8.53;3.43;;;16.50;99.90;;;;;;5162358;28;20208;-48
2023/08/07 04:45:22;;;;;;;4.47;3.23;;;16.60;99.90;;;;;;5164952;28;20282;-48
2023/08/07 04:47:53;;;;;;;4.03;3.73;;;16.70;99.90;;;;;;5167132;28;20211;-46
2023/08/07 04:50:23;;;;;;;8.07;3.57;;;16.80;99.90;;;;;;5160754;28;20211;-47
2023/08/07 04:52:54;;;;;;;7.50;3.50;;;16.90;99.90;;;;;;5163565;28;20185;-48
2023/08/07 04:55:25;;;;;;;8.23;3.47;;;16.90;99.90;;;;;;5161916;28;20196;-47
2023/08/07 04:57:56;;;;;;;5.07;3.30;;;16.90;99.90;;;;;;5163276;28;20248;-48
2023/08/07 05:00:27;;;;;;;9.00;4.10;;;17.10;99.90;;;;;;5155618;28;20444;-49
2023/08/07 05:02:58;;;;;;;6.70;3.17;;;17.50;99.90;;;;;;5149718;28;20197;-49
2023/08/07 05:05:29;;;;;;;5.00;2.97;;;17.70;99.90;;;;;;5159544;28;20444;-47
2023/08/07 05:07:59;;;;;;;6.53;3.20;;;17.90;99.90;;;;;;5159096;28;20368;-50
2023/08/07 05:10:30;;;;;;;3.83;3.50;;;18.20;99.90;;;;;;5162991;28;20231;-48
2023/08/07 05:13:00;;;;;;;3.50;2.73;;;18.90;99.90;;;;;;5163472;28;20190;-47
2023/08/07 05:15:31;;;;;;;5.97;2.43;;;19.20;99.90;;;;;;5164906;28;20203;-48
2023/08/07 05:18:02;;;;;;;7.93;2.40;;;19.70;99.90;;;;;;5163364;28;20189;-48
2023/08/07 05:20:33;;;;;;;4.30;3.27;;;19.90;99.90;;;;;;5162600;28;20213;-46
2023/08/07 05:23:03;;;;;;;3.53;2.37;;;19.90;99.90;;;;;;5158503;28;20538;-48
2023/08/07 05:25:34;;;;;;;2.47;1.87;;;19.50;99.90;;;;;;5159575;28;20239;-48
2023/08/07 05:28:05;;;;;;;8.90;2.70;;;19.00;99.90;;;;;;5162857;28;20236;-48
2023/08/07 05:30:35;;;;;;;2.33;2.20;;;18.60;99.90;;;;;;5158479;28;20202;-50
2023/08/07 05:33:06;;;;;;;3.30;2.90;;;18.30;99.90;;;;;;5151729;28;20436;-49
2023/08/07 05:35:38;;;;;;;2.27;2.10;;;18.20;99.90;;;;;;5160701;28;20178;-47
2023/08/07 05:38:09;;;;;;;3.30;2.63;;;18.10;99.90;;;;;;5159252;28;20188;-48
2023/08/07 05:40:40;;;;;;;3.20;3.00;;;18.00;99.90;;;;;;5160788;28;20452;-48
2023/08/07 05:43:12;;;;;;;2.20;2.10;;;17.90;99.90;;;;;;5161194;28;20315;-49
2023/08/07 05:45:44;;;;;;;5.73;3.30;;;17.80;99.90;;;;;;5163749;28;20420;-49
2023/08/07 05:48:16;;;;;;;4.63;2.67;;;17.70;99.90;;;;;;5163416;28;20550;-47
2023/08/07 05:50:46;;;;;;;3.20;3.00;;;17.60;99.90;;;;;;5162129;28;20571;-47
2023/08/07 05:53:17;;;;;;;3.50;3.30;;;17.50;99.90;;;;;;5164120;28;20543;-48
2023/08/07 05:55:47;;;;;;;2.90;2.40;;;17.60;99.90;;;;;;5164000;28;20284;-47
2023/08/07 05:58:18;;;;;;;3.97;2.60;;;17.90;99.90;;;;;;5155059;28;20212;-48
2023/08/07 06:00:49;;;;;;;6.23;2.40;;;18.20;99.90;;;;;;5149961;28;20325;-47
2023/08/07 06:03:20;;;;;;;3.60;3.00;;;18.50;99.90;;;;;;5165980;28;20447;-48
2023/08/07 06:05:50;;;;;;;1.77;1.73;;;18.30;99.90;;;;;;5165084;28;20193;-48
2023/08/07 06:08:21;;;;;;;2.97;2.43;;;18.50;99.90;;;;;;5159226;28;20228;-47
2023/08/07 06:10:51;;;;;;;3.07;2.50;;;19.00;99.90;;;;;;5164033;28;20228;-48
2023/08/07 06:13:22;;;;;;;2.87;2.60;;;19.20;99.90;;;;;;5164069;28;20181;-48
2023/08/07 06:15:54;;;;;;;4.50;2.20;;;19.40;99.90;;;;;;5163005;28;20305;-48
2023/08/07 06:18:24;;;;;;;4.30;2.13;;;19.70;99.90;;;;;;5164262;28;20684;-49
2023/08/07 06:20:56;;;;;;;2.97;2.37;;;19.60;99.90;;;;;;5163686;28;20504;-47
2023/08/07 06:23:26;;;;;;;3.40;2.63;;;20.30;99.90;;;;;;5164061;28;20184;-46
2023/08/07 06:25:57;;;;;;;1.90;1.80;;;20.30;99.90;;;;;;5166487;28;20514;-47
2023/08/07 06:28:28;;;;;;;4.30;2.17;;;20.10;99.90;;;;;;5164590;28;20209;-47
2023/08/07 06:31:06;;;;;;;2.03;1.93;;;19.60;99.90;;;;;;5166537;28;20215;-48
2023/08/07 06:33:37;;;;;;;2.30;2.20;;;19.90;99.90;;;;;;5149108;28;20172;-48
2023/08/07 06:36:10;;;;;;;1.50;1.50;;;20.00;99.90;;;;;;5157958;28;20456;-49
2023/08/07 06:38:41;;;;;;;4.30;2.00;;;19.70;99.90;;;;;;5165157;28;20191;-47
2023/08/07 06:41:12;;;;;;;1.60;1.60;;;19.50;99.90;;;;;;5162317;28;20467;-48
2023/08/07 06:43:43;;;;;;;4.00;2.00;;;19.50;99.90;;;;;;5166022;28;20238;-47
2023/08/07 06:46:14;;;;;;;2.50;2.20;;;19.30;99.90;;;;;;5155604;28;20539;-47
2023/08/07 06:48:44;;;;;;;2.13;1.80;;;18.70;99.90;;;;;;5155997;28;20208;-46
2023/08/07 06:51:16;;;;;;;3.70;2.17;;;18.60;99.90;;;;;;5148716;28;20224;-48
2023/08/07 06:53:47;;;;;;;4.60;2.60;;;18.80;99.90;;;;;;5153745;28;20181;-49
2023/08/07 06:56:18;;;;;;;1.70;1.60;;;18.70;99.90;;;;;;5158034;28;20420;-48
2023/08/07 06:58:48;;;;;;;3.63;2.63;;;18.80;99.90;;;;;;5160340;28;20189;-47
2023/08/07 07:01:19;;;;;;;3.47;1.57;;;18.70;99.90;;;;;;5165380;28;20645;-47
2023/08/07 07:03:52;;;;;;;1.20;1.20;;;18.70;99.90;;;;;;5147146;28;20177;-47
2023/08/07 07:06:25;;;;;;;2.40;1.60;;;19.10;99.90;;;;;;5165252;28;20239;-47
2023/08/07 07:08:56;;;;;;;1.77;1.60;;;19.70;99.90;;;;;;5162127;28;20460;-48
2023/08/07 07:11:26;;;;;;;1.37;1.37;;;20.30;99.90;;;;;;5156711;28;20462;-47
2023/08/07 07:13:57;;;;;;;1.80;1.70;;;20.80;99.90;;;;;;5141530;28;20614;-50
2023/08/07 07:16:27;;;;;;;1.80;1.30;;;20.70;99.90;;;;;;5152492;28;20209;-50
2023/08/07 07:18:59;;;;;;;3.97;1.90;;;21.00;99.90;;;;;;5158373;28;20189;-48
2023/08/07 07:21:30;;;;;;;1.60;1.50;;;21.30;99.90;;;;;;5156092;28;20220;-48
2023/08/07 07:24:02;;;;;;;1.10;1.10;;;21.80;99.90;;;;;;5159741;28;20435;-47
2023/08/07 07:26:32;;;;;;;5.67;1.60;;;21.70;99.90;;;;;;5167356;28;20184;-48
2023/08/07 07:29:03;;;;;;;2.80;1.47;;;21.80;99.90;;;;;;5168000;28;20478;-47
2023/08/07 07:31:34;;;;;;;2.33;1.23;;;22.10;99.90;;;;;;5165901;28;20211;-46
2023/08/07 07:34:04;;;;;;;1.90;1.80;;;22.70;99.90;;;;;;5169473;28;20267;-48
2023/08/07 07:36:35;;;;;;;2.73;1.93;;;23.20;99.60;;;;;;5159405;28;20721;-49
2023/08/07 07:39:05;;;;;;;1.83;1.73;;;22.60;98.10;;;;;;5163924;28;20224;-48
2023/08/07 07:41:36;;;;;;;3.80;2.17;;;22.00;99.50;;;;;;5163568;28;20216;-48
2023/08/07 07:44:07;;;;;;;1.83;1.37;;;21.80;99.90;;;;;;5162070;28;20185;-47
2023/08/07 07:46:37;;;;;;;3.43;1.17;;;21.90;98.80;;;;;;5160013;28;20216;-48
2023/08/07 07:49:08;;;;;;;1.33;1.30;;;21.80;98.60;;;;;;5160611;28;20233;-49
2023/08/07 07:51:40;;;;;;;4.23;1.97;;;21.80;99.10;;;;;;5161806;28;20224;-49
2023/08/07 07:54:10;;;;;;;1.70;1.60;;;22.30;98.90;;;;;;5164048;28;20200;-48
2023/08/07 07:56:43;;;;;;;3.47;1.57;;;22.80;96.30;;;;;;5161573;28;20486;-48
2023/08/07 07:59:13;;;;;;;1.70;1.60;;;22.50;96.60;;;;;;5160960;28;20199;-48
2023/08/07 08:01:44;;;;;;;1.20;1.20;;;22.50;96.80;;;;;;5158366;28;20543;-48
2023/08/07 08:04:15;;;;;;;2.03;1.93;;;21.70;97.20;;;;;;5158985;28;20222;-48
2023/08/07 08:06:48;;;;;;;1.50;1.50;;;20.90;99.10;;;;;;5165383;28;20185;-48
2023/08/07 08:09:18;;;;;;;1.93;1.30;;;20.80;99.90;;;;;;5162058;28;20264;-55
2023/08/07 08:11:49;;;;;;;6.90;1.37;;;20.90;99.70;;;;;;5163762;28;20551;-47
2023/08/07 08:14:19;;;;;;;1.20;1.20;;;20.60;99.90;;;;;;5162797;28;20676;-47
2023/08/07 08:16:50;;;;;;;2.20;1.30;;;20.50;99.90;;;;;;5159025;28;20181;-48
2023/08/07 08:19:21;;;;;;;2.00;1.53;;;20.50;99.90;;;;;;5159748;28;20196;-47
2023/08/07 08:21:51;;;;;;;2.10;1.90;;;20.70;99.90;;;;;;5162277;28;20221;-47
2023/08/07 08:24:22;;;;;;;1.50;1.50;;;20.50;99.90;;;;;;5159235;28;20177;-48
2023/08/07 08:26:52;;;;;;;3.20;1.60;;;20.50;99.90;;;;;;5162890;28;20212;-47
2023/08/07 08:29:23;;;;;;;2.07;1.97;;;20.00;99.90;;;;;;5163217;28;20193;-46
2023/08/07 08:31:55;;;;;;;1.63;1.50;;;20.10;99.90;;;;;;5161107;28;20216;-49
2023/08/07 08:34:27;;;;;;;9.30;2.33;;;20.10;99.90;;;;;;5163383;28;20707;-48
2023/08/07 08:36:57;;;;;;;4.13;1.97;;;20.00;99.90;;;;;;5166824;28;20436;-47
2023/08/07 08:39:28;;;;;;;11.73;1.90;;;19.60;99.90;;;;;;5163496;28;20459;-48
2023/08/07 08:41:59;;;;;;;1.63;1.53;;;19.30;99.90;;;;;;5164447;28;20268;-49
2023/08/07 08:44:35;;;;;;;2.13;1.60;;;19.40;99.90;;;;;;5162615;28;20447;-49
2023/08/07 08:47:08;;;;;;;1.60;1.50;;;19.60;99.90;;;;;;5164686;28;20442;-49
2023/08/07 08:49:47;;;;;;;4.20;1.97;;;19.90;99.90;;;;;;5159629;28;20464;-48
2023/08/07 08:52:18;;;;;;;1.60;1.50;;;20.30;99.90;;;;;;5163644;28;20533;-48
2023/08/07 08:54:50;;;;;;;2.43;1.60;;;20.70;99.90;;;;;;5157691;28;20460;-51
2023/08/07 08:57:21;;;;;;;2.73;1.87;;;20.90;99.90;;;;;;5158135;28;20439;-47
2023/08/07 08:59:52;;;;;;;3.70;1.57;;;20.70;99.90;;;;;;5162697;28;20746;-49
2023/08/07 09:02:23;;;;;;;1.83;1.70;;;21.00;99.90;;;;;;5155936;28;20452;-47
2023/08/07 09:04:54;;;;;;;1.47;1.30;;;21.30;99.90;;;;;;5159858;28;20443;-49
2023/08/07 09:07:26;;;;;;;2.10;1.40;;;21.00;99.90;;;;;;5157775;28;20213;-50
2023/08/07 09:09:57;;;;;;;1.63;1.53;;;21.00;99.90;;;;;;5161464;28;20668;-49
2023/08/07 09:12:31;;;;;;;2.40;1.47;;;21.00;99.90;;;;;;5157492;28;20451;-47
2023/08/07 09:15:06;;;;;;;1.93;1.80;;;20.90;99.90;;;;;;5147977;28;20470;-49
2023/08/07 09:17:41;;;;;;;6.97;1.70;;;21.00;99.90;;;;;;5157414;28;20432;-47
2023/08/07 09:20:13;;;;;;;1.30;1.30;;;21.00;99.90;;;;;;5159287;28;20903;-48
2023/08/07 09:22:43;;;;;;;1.70;1.60;;;21.00;99.90;;;;;;5160987;28;20458;-48
2023/08/07 09:25:14;;;;;;;4.00;1.47;;;21.30;99.90;;;;;;5162189;28;20440;-47
2023/08/07 09:27:45;;;;;;;1.63;1.53;;;21.40;99.90;;;;;;5159300;28;20692;-48
2023/08/07 09:30:16;;;;;;;2.20;1.83;;;21.30;99.90;;;;;;5143668;28;20181;-48
2023/08/07 09:32:50;;;;;;;2.03;1.43;;;21.40;99.90;;;;;;5161117;28;20519;-47
2023/08/07 09:35:21;;;;;;;9.10;1.83;;;21.70;99.90;;;;;;5160779;28;20435;-47
2023/08/07 09:37:52;;;;;;;2.87;1.57;;;22.20;99.90;;;;;;5159682;28;21729;-48
2023/08/07 09:40:23;;;;;;;1.27;1.20;;;22.20;99.20;;;;;;5165434;28;20458;-47
2023/08/07 09:42:54;;;;;;;1.40;1.30;;;22.10;98.90;;;;;;5160921;28;20191;-47
2023/08/07 09:45:27;;;;;;;4.93;1.77;;;21.90;98.40;;;;;;5159968;28;20184;-48
2023/08/07 09:47:59;;;;;;;1.30;1.20;;;21.70;98.70;;;;;;5156123;28;20597;-48
2023/08/07 09:50:31;;;;;;;1.80;1.33;;;21.10;99.30;;;;;;5157660;28;20435;-47
2023/08/07 09:53:02;;;;;;;4.30;2.00;;;21.20;99.30;;;;;;5159390;28;20436;-48
2023/08/07 09:55:33;;;;;;;5.13;1.60;;;21.20;98.60;;;;;;5163461;28;20436;-49
2023/08/07 09:58:07;;;;;;;1.73;1.63;;;21.30;99.50;;;;;;5158921;28;20177;-50
2023/08/07 10:00:40;;;;;;;2.33;0.97;;;21.50;99.90;;;;;;5161317;28;20539;-49
2023/08/07 10:03:11;;;;;;;2.50;1.27;;;21.60;99.90;;;;;;5159816;28;20440;-46
2023/08/07 10:05:43;;;;;;;1.90;1.47;;;21.60;99.90;;;;;;5156408;28;20440;-48
2023/08/07 10:08:13;;;;;;;2.00;1.90;;;21.40;99.80;;;;;;5162603;28;20205;-48
2023/08/07 10:10:46;;;;;;;1.80;1.20;;;21.40;99.90;;;;;;5161111;28;20535;-47
2023/08/07 10:13:18;;;;;;;1.67;1.57;;;21.30;99.90;;;;;;5165250;28;20191;-47
2023/08/07 10:15:50;;;;;;;1.60;1.40;;;21.10;99.90;;;;;;5162327;28;20441;-46
2023/08/07 10:18:21;;;;;;;4.47;2.33;;;20.80;99.90;;;;;;5159909;28;21592;-48
2023/08/07 10:20:52;;;;;;;2.10;1.60;;;20.90;99.90;;;;;;5155946;28;22368;-48
2023/08/07 10:23:23;;;;;;;6.37;1.70;;;21.20;99.90;;;;;;5161694;28;20447;-47
2023/08/07 10:25:55;;;;;;;1.80;1.00;;;21.30;99.10;;;;;;5160706;28;20224;-47
2023/08/07 10:28:27;;;;;;;2.00;1.40;;;21.30;98.00;;;;;;5158745;28;21134;-47
2023/08/07 10:30:58;;;;;;;1.60;1.47;;;21.50;98.10;;;;;;5150713;28;20537;-47
2023/08/07 10:33:30;;;;;;;4.20;1.60;;;21.40;97.40;;;;;;5156464;28;20804;-48
2023/08/07 10:36:07;;;;;;;3.50;1.53;;;21.40;98.00;;;;;;5144088;28;20655;-47
2023/08/07 10:38:38;;;;;;;1.27;1.17;;;21.30;96.70;;;;;;5164411;28;20526;-48
2023/08/07 10:41:10;;;;;;;1.47;1.43;;;21.20;96.80;;;;;;5161849;28;20591;-48
2023/08/07 10:43:43;;;;;;;6.57;1.40;;;20.80;96.90;;;;;;5162901;28;20195;-49
2023/08/07 10:46:23;;;;;;;3.30;1.40;;;21.00;97.80;;;;;;5145478;28;21031;-46
2023/08/07 10:48:57;;;;;;;3.50;1.30;;;20.90;97.40;;;;;;5160315;28;20464;-49
2023/08/07 10:51:32;;;;;;;2.53;1.23;;;21.30;97.70;;;;;;5162858;28;20460;-49
2023/08/07 10:54:03;;;;;;;1.30;1.20;;;21.50;97.00;;;;;;5159999;28;20468;-47
2023/08/07 10:56:39;;;;;;;1.33;1.23;;;21.70;96.80;;;;;;5161697;28;20537;-48
2023/08/07 10:59:12;;;;;;;3.80;1.63;;;21.60;96.30;;;;;;5162233;28;20280;-49
2023/08/07 11:01:43;;;;;;;1.60;1.07;;;21.20;97.30;;;;;;5164825;28;20455;-48
2023/08/07 11:04:14;;;;;;;2.30;2.10;;;21.00;98.10;;;;;;5164849;28;20447;-47
2023/08/07 11:06:47;;;;;;;2.20;1.53;;;20.90;98.40;;;;;;5165591;28;20502;-48
2023/08/07 11:09:18;;;;;;;1.50;1.37;;;20.50;98.70;;;;;;5148168;28;20499;-48
2023/08/07 11:11:49;;;;;;;6.30;1.90;;;20.30;98.50;;;;;;5161492;28;20568;-49
2023/08/07 11:14:19;;;;;;;2.33;2.13;;;20.00;99.90;;;;;;5161618;28;20792;-47
2023/08/07 11:16:52;;;;;;;3.93;2.30;;;19.80;99.90;;;;;;5165469;28;20208;-49
2023/08/07 11:19:23;;;;;;;5.37;2.63;;;19.30;99.90;;;;;;5153338;28;20200;-48
2023/08/07 11:21:54;;;;;;;6.63;2.00;;;18.90;99.90;;;;;;5166764;28;20959;-46
2023/08/07 11:24:27;;;;;;;4.33;1.70;;;19.00;99.90;;;;;;5166935;28;20201;-48
2023/08/07 11:26:58;;;;;;;1.83;1.50;;;19.10;99.90;;;;;;5135087;28;20444;-47
2023/08/07 11:29:30;;;;;;;1.83;1.73;;;19.60;99.90;;;;;;5156855;28;21025;-48
2023/08/07 11:32:02;;;;;;;7.37;3.83;;;20.00;99.90;;;;;;5165250;28;20456;-48
2023/08/07 11:34:33;;;;;;;1.87;1.27;;;20.20;99.90;;;;;;5156820;28;20440;-47
2023/08/07 11:37:03;;;;;;;5.17;2.30;;;20.20;99.90;;;;;;5145152;28;20472;-46
2023/08/07 11:39:42;;;;;;;4.27;2.20;;;20.20;99.90;;;;;;5158301;28;20192;-47
2023/08/07 11:42:13;;;;;;;1.57;1.27;;;20.40;99.90;;;;;;5157178;28;20200;-48
2023/08/07 11:44:45;;;;;;;3.70;1.70;;;20.50;99.90;;;;;;5160430;28;20436;-48
2023/08/07 11:47:16;;;;;;;2.30;1.47;;;20.20;99.90;;;;;;5161081;28;20464;-48
2023/08/07 11:49:47;;;;;;;3.07;1.90;;;20.10;99.90;;;;;;5158496;28;20444;-47
2023/08/07 11:52:18;;;;;;;7.27;2.33;;;20.10;99.90;;;;;;5158310;28;20550;-49
2023/08/07 11:54:49;;;;;;;3.10;1.20;;;20.30;99.90;;;;;;5161766;28;20519;-48
2023/08/07 11:57:20;;;;;;;3.27;1.77;;;20.80;99.90;;;;;;5158212;28;20542;-50
2023/08/07 11:59:51;;;;;;;4.20;1.80;;;20.70;99.90;;;;;;5162154;28;20199;-49
2023/08/07 12:02:25;;;;;;;2.50;1.53;;;20.90;99.90;;;;;;5159637;28;20456;-48
2023/08/07 12:04:59;;;;;;;1.40;1.40;;;21.40;99.90;;;;;;5161226;28;20211;-47
2023/08/07 12:07:30;;;;;;;4.13;1.60;;;21.60;99.90;;;;;;5161792;28;20468;-49
2023/08/07 12:10:03;;;;;;;1.93;1.40;;;21.60;99.90;;;;;;5158622;28;20499;-47
2023/08/07 12:12:36;;;;;;;5.40;2.10;;;21.80;99.90;;;;;;5160880;28;20236;-47
2023/08/07 12:15:08;;;;;;;1.93;1.73;;;21.80;99.90;;;;;;5161426;28;20453;-48
2023/08/07 12:17:39;;;;;;;3.33;1.53;;;21.70;99.90;;;;;;5159628;28;20428;-49
2023/08/07 12:20:11;;;;;;;6.83;2.20;;;21.20;99.90;;;;;;5145596;28;20987;-49
2023/08/07 12:22:43;;;;;;;3.53;1.90;;;21.10;99.90;;;;;;5159577;28;20208;-48
2023/08/07 12:25:14;;;;;;;4.20;1.70;;;21.00;99.90;;;;;;5163879;28;20444;-48
2023/08/07 12:27:47;;;;;;;8.87;2.40;;;20.80;99.90;;;;;;5160341;28;20849;-51
2023/08/07 12:30:18;;;;;;;1.87;1.77;;;20.70;99.90;;;;;;5149507;28;20177;-48
2023/08/07 12:32:48;;;;;;;2.80;2.40;;;20.90;99.90;;;;;;5162054;28;20443;-47
2023/08/07 12:35:19;;;;;;;3.17;2.03;;;21.10;99.90;;;;;;5163405;28;20606;-48
2023/08/07 12:37:49;;;;;;;2.87;1.93;;;21.10;99.90;;;;;;5161140;28;20193;-48
2023/08/07 12:40:21;;;;;;;3.43;1.43;;;20.80;99.90;;;;;;5158141;28;20631;-49
2023/08/07 12:42:51;;;;;;;3.83;2.20;;;20.60;99.90;;;;;;5162339;28;20173;-48
2023/08/07 12:45:23;;;;;;;4.20;1.57;;;20.50;99.90;;;;;;5158226;28;20470;-47
2023/08/07 12:47:53;;;;;;;1.83;1.70;;;20.40;99.90;;;;;;5160943;28;20213;-47
2023/08/07 12:50:24;;;;;;;6.90;2.47;;;20.50;99.90;;;;;;5162631;28;20550;-47
2023/08/07 12:52:55;;;;;;;6.50;2.30;;;20.50;99.90;;;;;;5159271;28;20201;-49
2023/08/07 12:55:27;;;;;;;6.10;2.60;;;20.40;99.90;;;;;;5158771;28;20452;-47
2023/08/07 12:57:58;;;;;;;7.67;2.40;;;20.20;99.90;;;;;;5160874;28;20205;-46
2023/08/07 13:00:29;;;;;;;3.17;1.77;;;20.20;99.90;;;;;;5158611;28;20511;-47
2023/08/07 13:02:59;;;;;;;3.40;2.00;;;20.40;99.90;;;;;;5158143;28;20275;-48
2023/08/07 13:05:31;;;;;;;2.50;1.73;;;20.50;99.90;;;;;;5159828;28;21005;-48